Time;durP1;ratioP1;P1;durP2;ratioP2;P2;SDS_P1;SDS_P2;PMS_P1;PMS_P2;Temp;Humidity;BMP_temperature;BMP_pressure;BME280_temperature;BME280_humidity;BME280_pressure;Samples;Min_cycle;Max_cycle;Signal;HPM_P1;HPM_P2
2022/08/31 00:04:41;;;;;;;7.60;2.80;;;;;;;20.81;53.51;98999.34;5113248;28;20050;-84
2022/08/31 00:07:07;;;;;;;15.15;5.00;;;;;;;20.85;53.37;98994.97;5107992;28;20137;-84
2022/08/31 00:09:34;;;;;;;7.10;2.25;;;;;;;20.95;53.73;99022.72;5113761;28;20143;-84
2022/08/31 00:12:01;;;;;;;5.82;2.85;;;;;;;20.98;53.55;99026.91;5114354;28;20054;-84
2022/08/31 00:14:28;;;;;;;4.72;2.75;;;;;;;21.06;53.36;99033.91;5113559;27;20146;-84
2022/08/31 00:16:56;;;;;;;6.78;4.07;;;;;;;20.96;53.47;99020.81;5113436;28;20055;-84
2022/08/31 00:19:23;;;;;;;4.20;2.58;;;;;;;20.97;53.43;99022.47;5112902;28;20044;-84
2022/08/31 00:21:50;;;;;;;5.60;3.13;;;;;;;20.95;53.74;99039.31;5114045;28;20459;-84
2022/08/31 00:24:20;;;;;;;3.72;2.70;;;;;;;20.97;53.80;99030.75;5112829;28;20479;-84
2022/08/31 00:26:47;;;;;;;6.38;2.88;;;;;;;20.96;54.29;99035.44;5105771;28;20086;-84
2022/08/31 00:29:14;;;;;;;7.60;3.22;;;;;;;20.83;54.95;99011.78;5113856;27;20134;-84
2022/08/31 00:31:41;;;;;;;7.13;2.78;;;;;;;20.79;54.95;99010.66;5113699;28;20059;-84
2022/08/31 00:34:09;;;;;;;4.55;2.80;;;;;;;20.86;55.26;99027.84;5112252;28;20043;-84
2022/08/31 00:36:35;;;;;;;5.30;2.88;;;;;;;20.93;54.60;99041.50;5112367;28;20450;-84
2022/08/31 00:39:04;;;;;;;8.05;2.92;;;;;;;20.98;55.69;99036.03;5113741;28;20047;-84
2022/08/31 00:41:38;;;;;;;4.90;3.10;;;;;;;20.95;55.15;99039.31;5113306;28;20075;-83
2022/08/31 00:44:08;;;;;;;9.55;3.17;;;;;;;20.73;54.99;99028.25;5112843;28;20453;-83
2022/08/31 00:46:38;;;;;;;5.40;2.95;;;;;;;20.72;54.98;99039.56;5113075;28;20100;-84
2022/08/31 00:49:07;;;;;;;5.50;3.10;;;;;;;20.79;55.11;99054.84;5112102;28;20051;-84
2022/08/31 00:51:40;;;;;;;5.90;3.30;;;;;;;20.69;55.09;99055.53;5113135;28;20051;-83
2022/08/31 00:54:09;;;;;;;8.38;3.17;;;;;;;20.82;55.10;99070.91;5112079;28;20106;-84
2022/08/31 00:56:39;;;;;;;3.40;2.70;;;;;;;20.73;55.96;99071.59;5112864;28;20047;-84
2022/08/31 00:59:11;;;;;;;5.43;2.53;;;;;;;20.53;56.77;99067.41;5113304;28;20113;-83
2022/08/31 01:01:38;;;;;;;12.90;2.85;;;;;;;20.47;57.24;99074.78;5112759;28;20127;-84
2022/08/31 01:04:06;;;;;;;4.30;2.55;;;;;;;20.29;57.69;99059.31;5112757;28;20058;-83
2022/08/31 01:06:34;;;;;;;5.30;2.90;;;;;;;20.37;58.03;99071.88;5110545;28;20048;-84
2022/08/31 01:09:04;;;;;;;3.95;2.50;;;;;;;20.42;57.68;99082.16;5104591;28;20043;-83
2022/08/31 01:11:31;;;;;;;;;;;;;;;20.30;57.96;99088.56;5113016;28;20054;-84
2022/08/31 01:13:58;;;;;;;8.52;3.13;;;;;;;20.32;58.25;99080.91;5112212;28;19926;-84
2022/08/31 01:16:28;;;;;;;6.35;2.33;;;;;;;20.30;58.19;99077.53;5112756;28;20415;-84
2022/08/31 01:18:58;;;;;;;7.35;2.63;;;;;;;20.18;58.34;99064.91;5112696;28;20101;-84
2022/08/31 01:21:29;;;;;;;9.55;3.13;;;;;;;20.21;59.40;99080.97;5111025;28;20395;-84
2022/08/31 01:24:00;;;;;;;7.95;2.45;;;;;;;20.12;58.57;99078.63;5112003;28;20073;-84
2022/08/31 01:26:30;;;;;;;6.75;2.70;;;;;;;20.12;59.57;99078.63;5113039;28;20051;-84
2022/08/31 01:29:02;;;;;;;6.35;3.20;;;;;;;20.25;60.06;99087.66;5111491;27;20047;-84
2022/08/31 01:31:35;;;;;;;8.85;3.00;;;;;;;20.16;61.08;99095.53;5112262;28;20135;-84
2022/08/31 01:34:02;;;;;;;5.38;3.33;;;;;;;19.90;61.97;99075.78;5112112;28;20096;-84
2022/08/31 01:36:32;;;;;;;6.88;2.83;;;;;;;20.00;63.88;99096.34;5111321;28;20059;-83
2022/08/31 01:39:00;;;;;;;7.25;2.85;;;;;;;19.87;65.81;99087.31;5111266;28;20043;-83
2022/08/31 01:41:27;;;;;;;5.57;2.80;;;;;;;19.79;67.17;99098.72;5112292;28;20039;-83
2022/08/31 01:43:54;;;;;;;9.57;2.55;;;;;;;19.85;67.57;99096.91;5111259;28;20047;-83
2022/08/31 01:46:21;;;;;;;3.78;2.92;;;;;;;19.73;69.07;99092.22;5112323;28;20039;-84
2022/08/31 01:48:51;;;;;;;6.35;3.40;;;;;;;19.67;69.82;99092.38;5112280;28;20039;-83
2022/08/31 01:51:20;;;;;;;6.82;3.22;;;;;;;19.66;70.42;99097.09;5111398;28;20236;-82
2022/08/31 01:53:49;;;;;;;6.97;3.55;;;;;;;19.74;70.42;99102.19;5111292;28;20363;-83
2022/08/31 01:56:20;;;;;;;8.20;3.33;;;;;;;19.75;71.17;99100.25;5112251;28;20050;-83
2022/08/31 01:58:47;;;;;;;9.25;4.32;;;;;;;19.74;71.31;99104.13;5111806;28;20289;-84
2022/08/31 02:01:14;;;;;;;5.53;3.78;;;;;;;19.70;73.00;99103.75;5111842;28;20515;-83
2022/08/31 02:03:41;;;;;;;7.30;3.60;;;;;;;19.63;75.24;99105.81;5111052;28;20047;-84
2022/08/31 02:06:10;;;;;;;6.78;3.72;;;;;;;19.57;75.62;99124.19;5108304;28;20089;-83
2022/08/31 02:08:37;;;;;;;6.23;3.60;;;;;;;19.67;76.45;99120.78;5111387;28;20051;-83
2022/08/31 02:11:04;;;;;;;10.23;4.07;;;;;;;19.58;79.73;99122.28;5111445;28;20428;-84
2022/08/31 02:13:33;;;;;;;7.80;3.80;;;;;;;19.43;81.50;99106.25;5111104;28;20509;-84
2022/08/31 02:16:00;;;;;;;7.63;4.47;;;;;;;19.42;82.29;99129.38;5111406;28;20479;-84
2022/08/31 02:18:27;;;;;;;9.45;3.97;;;;;;;19.41;84.47;99122.22;5111609;28;20046;-83
2022/08/31 02:20:54;;;;;;;7.30;3.92;;;;;;;19.36;86.41;99109.16;5110782;27;20054;-84
2022/08/31 02:23:21;;;;;;;7.10;3.92;;;;;;;19.32;89.24;99118.16;5110647;28;20046;-83
2022/08/31 02:25:48;;;;;;;11.20;4.18;;;;;;;19.09;92.19;99119.88;5111906;28;20044;-83
2022/08/31 02:28:17;;;;;;;4.72;4.07;;;;;;;19.05;92.33;99105.75;5111102;28;20052;-83
2022/08/31 02:30:46;;;;;;;5.10;3.92;;;;;;;19.27;92.31;99116.97;5111080;28;20505;-83
2022/08/31 02:33:13;;;;;;;6.45;4.43;;;;;;;19.18;93.85;99118.44;5109487;28;20409;-83
2022/08/31 02:35:41;;;;;;;8.02;4.47;;;;;;;19.03;95.97;99110.66;5111195;28;20055;-84
2022/08/31 02:38:09;;;;;;;6.80;5.05;;;;;;;19.15;96.40;99118.06;5111133;28;20069;-84
2022/08/31 02:40:37;;;;;;;7.43;4.40;;;;;;;19.16;96.09;99116.97;5111264;28;20051;-83
2022/08/31 02:43:04;;;;;;;6.88;4.35;;;;;;;19.17;96.30;99115.91;5110322;28;20051;-83
2022/08/31 02:45:31;;;;;;;8.02;4.45;;;;;;;19.12;97.42;99115.78;5110761;28;20044;-84
2022/08/31 02:48:02;;;;;;;7.03;4.90;;;;;;;19.06;98.60;99112.09;5110207;28;20043;-83
2022/08/31 02:50:29;;;;;;;7.65;4.45;;;;;;;18.97;98.94;99099.75;5102859;28;20047;-84
2022/08/31 02:52:55;;;;;;;8.73;4.60;;;;;;;19.13;98.92;99114.72;5110741;28;20047;-84
2022/08/31 02:55:23;;;;;;;6.47;4.35;;;;;;;19.05;98.22;99094.72;5110671;28;20097;-84
2022/08/31 02:57:50;;;;;;;9.90;5.70;;;;;;;19.14;99.51;99124.66;5110783;28;20078;-84
2022/08/31 03:00:17;;;;;;;6.25;4.45;;;;;;;18.90;100.00;99103.47;5110870;28;20130;-83
2022/08/31 03:02:44;;;;;;;7.57;4.10;;;;;;;18.89;100.00;99104.56;5109328;28;20132;-83
2022/08/31 03:05:12;;;;;;;6.03;4.85;;;;;;;18.79;100.00;99104.31;5109015;28;20043;-83
2022/08/31 03:07:39;;;;;;;5.82;4.28;;;;;;;18.86;100.00;99113.31;5110681;28;20388;-84
2022/08/31 03:10:09;;;;;;;7.43;4.68;;;;;;;18.77;100.00;99094.59;5110704;28;20059;-84
2022/08/31 03:12:37;;;;;;;9.95;5.40;;;;;;;18.58;100.00;99091.97;5109790;28;20047;-84
2022/08/31 03:15:05;;;;;;;9.10;4.45;;;;;;;18.75;100.00;99089.34;5110906;28;20134;-83
2022/08/31 03:17:32;;;;;;;8.60;4.55;;;;;;;18.62;100.00;99090.41;5108274;28;20047;-84
2022/08/31 03:20:02;;;;;;;7.57;4.75;;;;;;;18.68;100.00;99075.72;5111944;28;20502;-84
2022/08/31 03:22:30;;;;;;;8.30;4.22;;;;;;;18.71;100.00;99100.00;5114331;28;20052;-84
2022/08/31 03:24:57;;;;;;;7.10;4.75;;;;;;;18.72;100.00;99085.13;5115143;28;20079;-83
2022/08/31 03:27:24;;;;;;;10.57;5.00;;;;;;;18.75;100.00;99112.19;5114695;28;20052;-84
2022/08/31 03:29:51;;;;;;;5.55;4.35;;;;;;;18.72;100.00;99106.34;5114048;28;20100;-83
2022/08/31 03:32:18;;;;;;;10.20;4.47;;;;;;;18.76;100.00;99115.81;5113487;28;20062;-84
2022/08/31 03:34:45;;;;;;;10.38;4.78;;;;;;;18.64;100.00;99102.03;5114971;28;20131;-83
2022/08/31 03:37:12;;;;;;;8.70;4.43;;;;;;;18.69;100.00;99117.84;5115014;28;20044;-83
2022/08/31 03:39:40;;;;;;;5.63;4.35;;;;;;;18.66;100.00;99121.06;5106624;28;20055;-84
2022/08/31 03:42:07;;;;;;;5.63;4.57;;;;;;;18.55;100.00;99118.06;5114348;27;20047;-83
2022/08/31 03:44:34;;;;;;;7.18;5.10;;;;;;;18.59;100.00;99115.66;5114325;28;20305;-84
2022/08/31 03:47:01;;;;;;;6.82;4.97;;;;;;;18.66;100.00;99107.31;5113598;28;20052;-84
2022/08/31 03:49:27;;;;;;;6.20;4.50;;;;;;;18.69;100.00;99104.91;5114059;28;20100;-84
2022/08/31 03:51:54;;;;;;;6.85;4.43;;;;;;;18.49;100.00;99101.69;5114152;28;20441;-84
2022/08/31 03:54:21;;;;;;;5.13;4.25;;;;;;;18.43;100.00;99100.72;5113413;28;20044;-84
2022/08/31 03:56:49;;;;;;;7.63;4.85;;;;;;;18.49;100.00;99104.44;5114461;28;20410;-84
2022/08/31 03:59:16;;;;;;;8.25;5.30;;;;;;;18.60;100.00;99111.84;5114417;27;20502;-84
2022/08/31 04:01:42;;;;;;;8.18;5.32;;;;;;;18.51;100.00;99099.50;5113095;28;20047;-84
2022/08/31 04:04:12;;;;;;;8.07;5.53;;;;;;;18.47;100.00;99112.06;5113536;28;20065;-84
2022/08/31 04:06:40;;;;;;;7.57;4.97;;;;;;;18.37;100.00;99096.16;5112435;28;20499;-84
2022/08/31 04:09:07;;;;;;;7.88;5.05;;;;;;;18.45;100.00;99108.72;5114153;28;20047;-84
2022/08/31 04:11:34;;;;;;;8.32;5.53;;;;;;;18.38;100.00;99104.16;5114069;28;20154;-84
2022/08/31 04:14:02;;;;;;;7.00;4.93;;;;;;;18.31;100.00;99100.69;5112772;28;20410;-84
2022/08/31 04:16:28;;;;;;;8.38;4.93;;;;;;;18.37;100.00;99099.72;5113925;28;20047;-84
2022/08/31 04:18:55;;;;;;;7.95;4.95;;;;;;;18.28;100.00;99100.34;5114298;28;20138;-84
2022/08/31 04:21:25;;;;;;;7.20;4.60;;;;;;;18.39;100.00;99108.59;5112883;28;20053;-85
2022/08/31 04:23:53;;;;;;;8.07;5.15;;;;;;;18.40;100.00;99095.69;5112024;28;20075;-84
2022/08/31 04:26:22;;;;;;;8.98;5.53;;;;;;;18.47;100.00;99112.94;5112173;28;20499;-84
2022/08/31 04:28:49;;;;;;;7.82;5.20;;;;;;;18.50;100.00;99123.47;5113538;28;20061;-84
2022/08/31 04:31:18;;;;;;;6.18;5.03;;;;;;;18.47;100.00;99110.16;5113092;28;20040;-85
2022/08/31 04:33:45;;;;;;;8.02;5.30;;;;;;;18.49;100.00;99112.69;5112982;28;20399;-85
2022/08/31 04:36:14;;;;;;;6.07;4.68;;;;;;;18.37;100.00;99112.66;5113624;28;20145;-85
2022/08/31 04:38:43;;;;;;;9.93;5.95;;;;;;;18.38;100.00;99108.81;5112204;28;20418;-85
2022/08/31 04:41:12;;;;;;;8.27;5.35;;;;;;;18.45;100.00;99111.47;5113662;28;20050;-84
2022/08/31 04:43:40;;;;;;;8.80;5.00;;;;;;;18.37;100.00;99105.25;5112590;28;20055;-85
2022/08/31 04:46:08;;;;;;;8.10;5.40;;;;;;;18.53;100.00;99127.63;5113686;27;20040;-84
2022/08/31 04:48:36;;;;;;;6.82;5.32;;;;;;;18.47;100.00;99112.06;5113059;28;20051;-84
2022/08/31 04:51:06;;;;;;;7.70;4.63;;;;;;;18.53;100.00;99127.63;5113401;28;20040;-85
2022/08/31 04:53:35;;;;;;;9.73;5.05;;;;;;;18.56;100.00;99151.94;5111437;28;20131;-84
2022/08/31 04:56:13;;;;;;;6.60;4.75;;;;;;;18.47;100.00;99134.94;5105880;28;20164;-84
2022/08/31 04:58:40;;;;;;;9.40;4.78;;;;;;;18.42;100.00;99139.47;5112929;28;20112;-85
2022/08/31 05:01:08;;;;;;;6.13;4.95;;;;;;;18.46;100.00;99143.44;5113203;28;20061;-85
2022/08/31 05:03:37;;;;;;;6.80;5.00;;;;;;;18.45;100.00;99133.50;5112295;28;20055;-85
2022/08/31 05:06:04;;;;;;;8.27;5.28;;;;;;;18.29;100.00;99130.38;5111303;28;20035;-84
2022/08/31 05:08:30;;;;;;;8.32;4.93;;;;;;;18.37;100.00;99154.78;5112572;28;20043;-85
2022/08/31 05:10:57;;;;;;;6.97;4.70;;;;;;;18.26;100.00;99146.50;5112879;28;20044;-85
2022/08/31 05:13:24;;;;;;;6.93;4.90;;;;;;;18.31;100.00;99169.47;5112183;28;20040;-85
2022/08/31 05:15:50;;;;;;;7.95;5.13;;;;;;;18.13;100.00;99144.81;5109995;28;20043;-84
2022/08/31 05:18:17;;;;;;;13.55;5.57;;;;;;;18.27;100.00;99165.53;5111860;28;20043;-84
2022/08/31 05:20:47;;;;;;;11.23;5.07;;;;;;;18.33;100.00;99172.00;5112494;28;20051;-84
2022/08/31 05:23:14;;;;;;;6.82;5.05;;;;;;;18.36;100.00;99177.03;5112128;28;20132;-84
2022/08/31 05:25:43;;;;;;;6.93;4.63;;;;;;;18.43;100.00;99169.50;5112055;28;20044;-84
2022/08/31 05:28:10;;;;;;;7.40;4.68;;;;;;;18.25;100.00;99162.19;5111483;28;20043;-84
2022/08/31 05:30:37;;;;;;;7.53;4.75;;;;;;;18.33;100.00;99166.50;5112712;28;20055;-83
2022/08/31 05:33:03;;;;;;;6.18;4.47;;;;;;;18.39;100.00;99171.06;5112649;28;20075;-84
2022/08/31 05:35:30;;;;;;;11.75;5.32;;;;;;;18.40;100.00;99179.06;5104086;28;20059;-84
2022/08/31 05:37:58;;;;;;;10.40;5.22;;;;;;;18.31;100.00;99176.91;5112640;28;20055;-84
2022/08/31 05:40:25;;;;;;;10.07;5.38;;;;;;;18.15;100.00;99170.16;5111269;28;20125;-84
2022/08/31 05:42:52;;;;;;;8.18;4.60;;;;;;;18.33;100.00;99188.50;5110521;28;20126;-84
2022/08/31 05:45:18;;;;;;;9.85;4.82;;;;;;;18.19;99.81;99179.63;5111895;28;20047;-84
2022/08/31 05:47:45;;;;;;;7.03;4.97;;;;;;;18.29;100.00;99184.53;5109868;28;20105;-84
2022/08/31 05:50:12;;;;;;;8.75;5.28;;;;;;;18.32;97.37;99168.41;5110609;28;20050;-84
2022/08/31 05:52:38;;;;;;;9.23;4.38;;;;;;;18.21;91.24;99180.22;5109595;28;20054;-84
2022/08/31 05:55:07;;;;;;;7.72;3.70;;;;;;;18.29;90.21;99182.66;5111709;28;20150;-84
2022/08/31 05:57:34;;;;;;;7.30;3.95;;;;;;;18.31;89.27;99175.00;5111755;28;20497;-84
2022/08/31 06:00:01;;;;;;;7.47;3.50;;;;;;;18.24;87.88;99177.00;5111982;28;20046;-84
2022/08/31 06:02:27;;;;;;;7.07;3.85;;;;;;;18.35;86.05;99191.84;5110869;28;20048;-84
2022/08/31 06:04:56;;;;;;;9.52;4.10;;;;;;;18.18;86.99;99183.44;5108479;28;20043;-84
2022/08/31 06:07:23;;;;;;;8.50;3.70;;;;;;;18.11;86.10;99179.94;5111252;28;20043;-84
2022/08/31 06:09:49;;;;;;;10.57;4.18;;;;;;;18.24;85.71;99189.94;5111774;28;20131;-84
2022/08/31 06:12:19;;;;;;;7.00;3.38;;;;;;;18.12;83.42;99181.63;5110878;27;20122;-82
2022/08/31 06:14:45;;;;;;;10.10;4.75;;;;;;;18.04;82.18;99178.13;5111500;28;20047;-84
2022/08/31 06:17:15;;;;;;;6.85;3.50;;;;;;;18.14;81.88;99190.47;5111652;27;20046;-84
2022/08/31 06:19:42;;;;;;;5.70;3.03;;;;;;;18.18;79.94;99188.94;5110433;28;20771;-84
2022/08/31 06:22:08;;;;;;;7.85;3.05;;;;;;;18.30;78.94;99205.50;5110948;27;20051;-83
2022/08/31 06:24:37;;;;;;;7.03;2.83;;;;;;;18.17;77.95;99207.38;5111232;28;20054;-83
2022/08/31 06:27:04;;;;;;;3.83;2.63;;;;;;;18.13;78.03;99200.66;5111706;28;20449;-83
2022/08/31 06:29:34;;;;;;;6.40;2.75;;;;;;;18.16;77.07;99197.44;5111257;28;20044;-83
2022/08/31 06:32:06;;;;;;;6.15;2.92;;;;;;;18.17;77.22;99209.25;5111009;28;20872;-83
2022/08/31 06:34:34;;;;;;;8.73;3.22;;;;;;;18.27;76.83;99212.28;5110331;28;20101;-84
2022/08/31 06:37:01;;;;;;;4.45;2.80;;;;;;;18.20;77.32;99195.91;5111072;28;20048;-84
2022/08/31 06:39:28;;;;;;;8.70;3.25;;;;;;;18.23;76.38;99180.81;5111121;28;20070;-84
2022/08/31 06:41:55;;;;;;;10.23;3.40;;;;;;;18.32;75.88;99212.44;5111388;28;20407;-83
2022/08/31 06:44:23;;;;;;;5.88;3.10;;;;;;;18.21;76.21;99193.97;5109347;27;20040;-83
2022/08/31 06:46:52;;;;;;;4.97;3.20;;;;;;;18.19;75.05;99187.88;5111089;28;20475;-83
2022/08/31 06:49:23;;;;;;;4.25;2.85;;;;;;;18.43;74.50;99209.94;5110864;28;20127;-83
2022/08/31 06:51:50;;;;;;;5.00;3.20;;;;;;;18.18;74.89;99192.53;5110781;28;20372;-83
2022/08/31 06:54:19;;;;;;;5.07;3.33;;;;;;;18.31;74.68;99207.19;5110157;28;20047;-83
2022/08/31 06:56:46;;;;;;;5.60;3.35;;;;;;;18.34;74.95;99215.78;5110505;28;20055;-83
2022/08/31 06:59:13;;;;;;;4.65;2.90;;;;;;;18.43;74.45;99212.69;5110832;28;20127;-83
2022/08/31 07:01:40;;;;;;;3.67;2.58;;;;;;;18.52;74.14;99216.81;5111079;27;20047;-83
2022/08/31 07:04:11;;;;;;;6.65;3.10;;;;;;;18.45;73.94;99211.41;5110680;28;20047;-83
2022/08/31 07:06:41;;;;;;;9.23;3.20;;;;;;;18.65;73.61;99224.00;5110434;28;20439;-84
2022/08/31 07:09:14;;;;;;;8.32;3.08;;;;;;;18.50;73.06;99208.78;5111347;28;20134;-83
2022/08/31 07:11:44;;;;;;;8.05;3.03;;;;;;;18.61;73.44;99209.88;5109648;28;20051;-83
2022/08/31 07:14:12;;;;;;;8.20;3.25;;;;;;;18.67;72.94;99227.38;5104135;28;20127;-84
2022/08/31 07:16:40;;;;;;;6.22;3.00;;;;;;;18.64;73.26;99225.94;5110669;28;20071;-84
2022/08/31 07:19:09;;;;;;;8.93;3.40;;;;;;;18.62;72.91;99233.56;5110631;27;20509;-82
2022/08/31 07:21:40;;;;;;;7.28;2.92;;;;;;;18.67;73.59;99241.97;5110564;28;20293;-84
2022/08/31 07:24:08;;;;;;;12.55;3.28;;;;;;;18.80;73.22;99234.56;5108434;28;20048;-83
2022/08/31 07:26:38;;;;;;;4.95;3.05;;;;;;;18.80;72.59;99229.06;5110462;28;20490;-84
2022/08/31 07:29:07;;;;;;;7.00;3.05;;;;;;;18.88;72.71;99212.22;5110895;28;20059;-82
2022/08/31 07:31:39;;;;;;;6.55;3.58;;;;;;;19.13;71.90;99228.50;5110122;28;20062;-82
2022/08/31 07:34:06;;;;;;;7.15;3.25;;;;;;;19.06;71.30;99214.88;5110100;28;20055;-84
2022/08/31 07:42:08;;;;;;;7.05;3.55;;;;;;;19.23;71.12;99227.94;5110624;28;20044;-85
2022/08/31 07:42:14;;;;;;;7.57;3.80;;;;;;;19.39;70.08;99223.59;5078716;27;20054;-84
2022/08/31 07:44:41;;;;;;;6.53;3.47;;;;;;;19.20;70.53;99233.94;5111177;28;20514;-84
2022/08/31 07:47:11;;;;;;;8.73;3.83;;;;;;;19.18;70.20;99236.06;5110713;28;20040;-84
2022/08/31 07:49:43;;;;;;;4.28;3.35;;;;;;;19.14;70.83;99235.72;5110561;28;20052;-84
2022/08/31 07:52:11;;;;;;;7.05;3.38;;;;;;;19.04;71.43;99219.75;5109135;28;20140;-83
2022/08/31 07:54:38;;;;;;;12.88;3.47;;;;;;;19.09;71.27;99235.59;5110128;28;20051;-83
2022/08/31 07:57:05;;;;;;;6.53;3.90;;;;;;;19.27;71.09;99232.72;5110627;28;20043;-83
2022/08/31 07:59:33;;;;;;;6.00;3.28;;;;;;;19.43;70.18;99230.31;5109919;28;20454;-83
2022/08/31 08:02:02;;;;;;;8.88;3.28;;;;;;;19.73;69.18;99229.31;5110024;28;20096;-83
2022/08/31 08:04:29;;;;;;;8.15;3.38;;;;;;;19.75;68.02;99222.47;5109403;28;20158;-83
2022/08/31 08:06:59;;;;;;;7.05;3.05;;;;;;;19.74;68.43;99231.00;5111645;28;20142;-83
2022/08/31 08:09:29;;;;;;;4.15;3.38;;;;;;;19.75;69.08;99230.75;5114247;28;20047;-83
2022/08/31 08:12:05;;;;;;;6.68;3.40;;;;;;;19.91;67.14;99222.81;5113692;28;20052;-82
2022/08/31 08:14:33;;;;;;;7.68;3.58;;;;;;;19.89;67.32;99258.91;5114229;28;20047;-84
2022/08/31 08:17:00;;;;;;;8.50;3.47;;;;;;;19.76;67.63;99248.13;5114277;28;20043;-83
2022/08/31 08:19:27;;;;;;;6.32;3.15;;;;;;;19.86;67.98;99259.41;5113285;28;20047;-83
2022/08/31 08:21:54;;;;;;;5.95;2.78;;;;;;;19.76;67.79;99248.94;5113544;28;20479;-83
2022/08/31 08:24:20;;;;;;;5.32;3.65;;;;;;;19.82;67.04;99246.34;5113155;28;20044;-83
2022/08/31 08:26:50;;;;;;;10.60;3.97;;;;;;;19.73;66.99;99252.19;5113653;28;20078;-82
2022/08/31 08:29:19;;;;;;;8.75;3.60;;;;;;;19.85;67.71;99266.00;5113461;28;20056;-82
2022/08/31 08:31:52;;;;;;;6.95;3.42;;;;;;;19.70;67.43;99257.38;5113279;28;20126;-83
2022/08/31 08:34:20;;;;;;;7.00;3.83;;;;;;;19.67;68.93;99271.63;5111850;27;20057;-83
2022/08/31 08:36:47;;;;;;;5.25;3.60;;;;;;;19.62;68.56;99267.69;5113323;28;20463;-82
2022/08/31 08:39:14;;;;;;;10.82;3.88;;;;;;;19.51;68.48;99252.00;5113333;28;20048;-83
2022/08/31 08:41:42;;;;;;;6.45;3.90;;;;;;;19.67;68.17;99260.59;5113560;28;20071;-82
2022/08/31 08:44:14;;;;;;;5.88;3.40;;;;;;;19.72;68.27;99272.59;5112604;28;20052;-83
2022/08/31 08:46:46;;;;;;;5.05;4.07;;;;;;;19.78;67.79;99262.53;5113354;28;20054;-82
2022/08/31 08:49:18;;;;;;;8.38;3.83;;;;;;;19.90;67.69;99281.81;5110981;28;20047;-82
2022/08/31 08:51:48;;;;;;;6.68;3.55;;;;;;;19.89;67.41;99280.97;5113165;28;20104;-82
2022/08/31 08:54:24;;;;;;;6.53;3.70;;;;;;;19.89;67.72;99272.72;5112571;28;20458;-83
2022/08/31 08:56:50;;;;;;;6.85;3.90;;;;;;;19.71;68.19;99270.09;5105171;28;20111;-82
2022/08/31 08:59:18;;;;;;;7.30;4.32;;;;;;;19.58;68.45;99266.47;5113112;28;20054;-82
2022/08/31 09:01:47;;;;;;;7.50;3.55;;;;;;;19.61;69.78;99284.47;5113062;28;20075;-82
2022/08/31 09:04:32;;;;;;;7.25;4.32;;;;;;;19.72;69.56;99282.78;5111309;28;20043;-82
2022/08/31 09:07:19;;;;;;;6.55;3.63;;;;;;;19.78;68.64;99266.13;5109942;28;20135;-82
2022/08/31 09:09:56;;;;;;;9.07;3.78;;;;;;;19.97;67.67;99291.63;5112609;28;20134;-82
2022/08/31 09:12:30;;;;;;;7.60;3.15;;;;;;;19.86;68.95;99289.75;5108105;28;20047;-81
2022/08/31 09:15:35;;;;;;;4.32;3.40;;;;;;;19.77;68.63;99275.50;5109117;28;20048;-82
2022/08/31 09:18:14;;;;;;;7.32;3.95;;;;;;;19.84;68.92;99300.16;5110454;28;20050;-83
2022/08/31 09:20:42;;;;;;;11.65;3.75;;;;;;;19.99;68.80;99291.38;5112590;28;20547;-83
2022/08/31 09:23:09;;;;;;;7.70;3.83;;;;;;;20.10;67.71;99286.94;5111895;28;20058;-83
2022/08/31 09:25:50;;;;;;;5.80;3.65;;;;;;;20.15;67.83;99279.59;5112317;28;20516;-83
2022/08/31 09:28:19;;;;;;;5.65;3.60;;;;;;;20.38;67.45;99288.03;5110645;28;20075;-82
2022/08/31 09:30:51;;;;;;;6.63;3.30;;;;;;;20.36;66.68;99296.56;5112428;28;20055;-83
2022/08/31 09:33:21;;;;;;;5.80;3.63;;;;;;;20.41;67.09;99288.38;5111489;28;20055;-83
2022/08/31 09:35:55;;;;;;;7.68;3.90;;;;;;;20.66;65.85;99278.94;5112578;28;20143;-82
2022/08/31 09:38:30;;;;;;;6.93;3.63;;;;;;;20.50;65.53;99284.16;5112481;28;20047;-83
2022/08/31 09:40:58;;;;;;;6.72;3.47;;;;;;;20.46;65.83;99291.25;5112544;28;20054;-83
2022/08/31 09:43:33;;;;;;;5.97;3.67;;;;;;;20.58;66.08;99304.16;5110878;28;20458;-83
2022/08/31 09:46:06;;;;;;;5.95;3.65;;;;;;;20.54;65.52;99281.72;5109681;28;20047;-82
2022/08/31 09:48:50;;;;;;;6.38;3.72;;;;;;;20.74;65.35;99267.47;5112458;28;20059;-83
2022/08/31 09:51:23;;;;;;;4.28;3.47;;;;;;;20.71;65.42;99280.94;5112071;28;20044;-83
2022/08/31 09:56:51;;;;;;;5.90;3.30;;;;;;;20.90;64.32;99281.56;5111856;28;20236;-82
2022/08/31 09:59:30;;;;;;;7.43;3.83;;;;;;;20.89;64.21;99269.66;5111054;28;20130;-84
2022/08/31 10:01:59;;;;;;;8.37;3.37;;;;;;;20.85;64.82;99285.06;5104641;28;20050;-82
2022/08/31 10:04:28;;;;;;;7.07;3.65;;;;;;;20.75;64.17;99271.09;5110294;28;20039;-82
2022/08/31 10:07:12;;;;;;;5.55;3.60;;;;;;;20.92;64.47;99271.91;5103627;28;20047;-83
2022/08/31 10:09:43;;;;;;;6.68;4.03;;;;;;;21.03;63.27;99272.91;5111594;28;20544;-83
2022/08/31 10:12:18;;;;;;;5.85;3.45;;;;;;;21.07;63.14;99276.03;5110337;28;20085;-83
2022/08/31 10:14:52;;;;;;;5.72;3.55;;;;;;;21.18;63.46;99275.97;5111750;28;20074;-83
2022/08/31 10:20:50;;;;;;;10.27;3.70;;;;;;;21.49;61.56;99273.66;5099450;27;20051;-82
2022/08/31 10:23:24;;;;;;;4.45;3.25;;;;;;;21.31;61.84;99269.22;5110954;28;20050;-83
2022/08/31 10:25:57;;;;;;;6.93;3.60;;;;;;;21.44;61.76;99275.50;5111243;28;20058;-82
2022/08/31 10:28:30;;;;;;;9.82;4.25;;;;;;;21.47;61.93;99291.56;5110918;28;20050;-82
2022/08/31 10:31:01;;;;;;;5.40;4.15;;;;;;;21.38;61.68;99291.19;5111300;28;20148;-83
2022/08/31 10:36:17;;;;;;;4.47;3.15;;;;;;;21.32;62.75;99293.03;5104583;27;20050;-82
2022/08/31 10:38:47;;;;;;;5.03;3.60;;;;;;;21.23;63.07;99286.25;5111226;28;20047;-85
2022/08/31 10:41:22;;;;;;;5.78;3.65;;;;;;;21.33;62.57;99282.81;5111028;28;20130;-83
2022/08/31 10:43:58;;;;;;;8.32;3.42;;;;;;;21.29;62.32;99288.00;5110341;28;20047;-82
2022/08/31 10:46:26;;;;;;;5.70;3.72;;;;;;;21.07;63.64;99274.09;5110837;28;20088;-82
2022/08/31 10:52:28;;;;;;;4.78;3.78;;;;;;;21.07;63.41;99279.63;5102386;28;20042;-82
2022/08/31 10:55:05;;;;;;;9.45;4.03;;;;;;;20.99;63.63;99280.06;5111629;28;20055;-83
2022/08/31 10:57:41;;;;;;;8.43;3.65;;;;;;;21.15;63.21;99270.94;5111406;28;20043;-82
2022/08/31 11:00:40;;;;;;;5.85;3.90;;;;;;;21.40;61.97;99292.59;5111272;28;20070;-83
2022/08/31 11:03:11;;;;;;;6.57;3.53;;;;;;;21.23;62.60;99289.03;5111512;27;20131;-84
2022/08/31 11:05:41;;;;;;;5.68;3.75;;;;;;;21.09;63.43;99273.84;5106981;28;20152;-84
2022/08/31 11:08:20;;;;;;;;;;;;;;;21.31;63.32;99285.81;5111084;28;20073;-84
2022/08/31 11:10:50;;;;;;;6.30;3.88;;;;;;;21.20;62.75;99286.75;5111077;28;19923;-84
2022/08/31 11:13:37;;;;;;;7.55;4.40;;;;;;;21.43;62.46;99293.19;5109771;28;20044;-84
2022/08/31 11:16:28;;;;;;;5.30;3.95;;;;;;;21.56;61.12;99267.97;5110672;28;20051;-84
2022/08/31 11:19:14;;;;;;;5.63;4.13;;;;;;;21.72;60.99;99292.00;5103787;28;20043;-84
2022/08/31 11:22:33;;;;;;;7.35;4.65;;;;;;;21.49;61.44;99279.19;5108649;28;20051;-84
2022/08/31 11:25:16;;;;;;;8.68;4.35;;;;;;;21.51;61.64;99290.88;5067781;28;20056;-84
2022/08/31 11:27:47;;;;;;;9.57;4.00;;;;;;;21.48;61.13;99279.44;5107404;27;20548;-83
2022/08/31 11:30:22;;;;;;;6.90;4.60;;;;;;;21.82;60.30;99276.63;5110465;28;20059;-84
2022/08/31 11:32:52;;;;;;;6.40;3.97;;;;;;;21.89;60.18;99269.00;5108482;28;20057;-83
2022/08/31 11:35:56;;;;;;;7.13;4.28;;;;;;;21.79;60.09;99272.44;5109507;28;20044;-83
2022/08/31 11:38:48;;;;;;;10.10;3.90;;;;;;;21.96;59.33;99266.00;5108464;28;20079;-83
2022/08/31 11:41:42;;;;;;;6.97;4.10;;;;;;;22.13;59.28;99260.41;5112533;28;20117;-83
2022/08/31 11:44:30;;;;;;;7.65;4.18;;;;;;;22.31;58.70;99275.84;5106784;28;20047;-83
2022/08/31 11:47:05;;;;;;;8.02;4.65;;;;;;;22.16;58.29;99271.81;5111844;28;20043;-83
2022/08/31 11:49:54;;;;;;;4.97;4.25;;;;;;;22.28;58.16;99253.13;5114110;28;20043;-83
2022/08/31 11:52:42;;;;;;;8.20;4.27;;;;;;;22.44;57.46;99267.16;5112023;28;20047;-83
2022/08/31 11:55:20;;;;;;;6.10;3.83;;;;;;;22.60;57.63;99284.78;5114678;28;20052;-83
2022/08/31 11:58:18;;;;;;;8.20;3.90;;;;;;;22.62;57.41;99257.66;5105985;28;20456;-83
2022/08/31 12:00:50;;;;;;;10.07;3.92;;;;;;;22.50;57.48;99270.81;5112261;28;20056;-83
2022/08/31 12:03:40;;;;;;;8.70;3.72;;;;;;;22.59;57.76;99269.25;5113946;28;20127;-83
2022/08/31 12:06:11;;;;;;;7.40;3.53;;;;;;;22.78;57.36;99269.72;5107160;28;20063;-86